sensor_id;sensor_type;location;lat;lon;timestamp;P1;durP1;ratioP1;P2;durP2;ratioP2
11054;SDS011;5580;50.106;8.702;2023-06-22T00:00:51;15.07;;;9.43;;
11054;SDS011;5580;50.106;8.702;2023-06-22T00:03:20;14.23;;;9.40;;
11054;SDS011;5580;50.106;8.702;2023-06-22T00:05:48;12.50;;;9.13;;
11054;SDS011;5580;50.106;8.702;2023-06-22T00:08:14;15.40;;;9.03;;
11054;SDS011;5580;50.106;8.702;2023-06-22T00:10:40;14.50;;;9.00;;
11054;SDS011;5580;50.106;8.702;2023-06-22T00:13:06;13.03;;;9.10;;
11054;SDS011;5580;50.106;8.702;2023-06-22T00:15:33;12.93;;;9.50;;
11054;SDS011;5580;50.106;8.702;2023-06-22T00:17:58;14.20;;;9.27;;
11054;SDS011;5580;50.106;8.702;2023-06-22T00:20:25;13.60;;;9.63;;
11054;SDS011;5580;50.106;8.702;2023-06-22T00:22:55;13.77;;;9.53;;
11054;SDS011;5580;50.106;8.702;2023-06-22T00:25:21;12.53;;;9.10;;
11054;SDS011;5580;50.106;8.702;2023-06-22T00:27:47;13.87;;;9.63;;
11054;SDS011;5580;50.106;8.702;2023-06-22T00:30:13;13.07;;;9.40;;
11054;SDS011;5580;50.106;8.702;2023-06-22T00:32:40;13.73;;;9.50;;
11054;SDS011;5580;50.106;8.702;2023-06-22T00:35:06;13.30;;;9.07;;
11054;SDS011;5580;50.106;8.702;2023-06-22T00:37:32;12.47;;;8.87;;
11054;SDS011;5580;50.106;8.702;2023-06-22T00:39:58;12.77;;;9.20;;
11054;SDS011;5580;50.106;8.702;2023-06-22T00:42:23;13.00;;;8.93;;
11054;SDS011;5580;50.106;8.702;2023-06-22T00:44:49;13.10;;;9.27;;
11054;SDS011;5580;50.106;8.702;2023-06-22T00:47:15;14.27;;;8.57;;
11054;SDS011;5580;50.106;8.702;2023-06-22T00:49:43;11.80;;;8.70;;
11054;SDS011;5580;50.106;8.702;2023-06-22T00:52:10;12.70;;;8.73;;
11054;SDS011;5580;50.106;8.702;2023-06-22T00:54:39;11.57;;;8.60;;
11054;SDS011;5580;50.106;8.702;2023-06-22T00:57:11;13.23;;;8.37;;
11054;SDS011;5580;50.106;8.702;2023-06-22T00:59:40;11.63;;;8.27;;
11054;SDS011;5580;50.106;8.702;2023-06-22T01:02:07;11.93;;;8.80;;
11054;SDS011;5580;50.106;8.702;2023-06-22T01:04:34;13.17;;;8.03;;
11054;SDS011;5580;50.106;8.702;2023-06-22T01:09:57;11.73;;;8.83;;
11054;SDS011;5580;50.106;8.702;2023-06-22T01:12:42;11.27;;;8.43;;
11054;SDS011;5580;50.106;8.702;2023-06-22T01:15:16;11.97;;;8.33;;
11054;SDS011;5580;50.106;8.702;2023-06-22T01:17:46;13.07;;;9.23;;
11054;SDS011;5580;50.106;8.702;2023-06-22T01:20:15;12.20;;;9.10;;
11054;SDS011;5580;50.106;8.702;2023-06-22T01:23:00;12.40;;;8.83;;
11054;SDS011;5580;50.106;8.702;2023-06-22T01:25:43;14.20;;;9.10;;
11054;SDS011;5580;50.106;8.702;2023-06-22T01:31:18;13.00;;;9.27;;
11054;SDS011;5580;50.106;8.702;2023-06-22T01:33:48;13.80;;;9.53;;
11054;SDS011;5580;50.106;8.702;2023-06-22T01:36:18;15.67;;;10.83;;
11054;SDS011;5580;50.106;8.702;2023-06-22T01:38:44;15.73;;;10.37;;
11054;SDS011;5580;50.106;8.702;2023-06-22T01:41:12;14.87;;;10.97;;
11054;SDS011;5580;50.106;8.702;2023-06-22T01:43:38;14.13;;;10.57;;
11054;SDS011;5580;50.106;8.702;2023-06-22T01:46:04;15.30;;;10.53;;
11054;SDS011;5580;50.106;8.702;2023-06-22T01:48:30;13.87;;;10.53;;
11054;SDS011;5580;50.106;8.702;2023-06-22T01:50:56;14.47;;;9.97;;
11054;SDS011;5580;50.106;8.702;2023-06-22T01:53:22;14.77;;;10.13;;
11054;SDS011;5580;50.106;8.702;2023-06-22T01:55:49;15.13;;;10.50;;
11054;SDS011;5580;50.106;8.702;2023-06-22T01:58:15;18.03;;;10.57;;
11054;SDS011;5580;50.106;8.702;2023-06-22T02:00:44;16.63;;;10.97;;
11054;SDS011;5580;50.106;8.702;2023-06-22T02:03:14;14.17;;;10.93;;
11054;SDS011;5580;50.106;8.702;2023-06-22T02:05:52;13.73;;;10.67;;
11054;SDS011;5580;50.106;8.702;2023-06-22T02:08:39;13.33;;;10.83;;
11054;SDS011;5580;50.106;8.702;2023-06-22T02:11:07;14.57;;;10.13;;
11054;SDS011;5580;50.106;8.702;2023-06-22T02:13:36;14.13;;;10.73;;
11054;SDS011;5580;50.106;8.702;2023-06-22T02:16:02;15.40;;;10.60;;
11054;SDS011;5580;50.106;8.702;2023-06-22T02:18:28;15.73;;;10.33;;
11054;SDS011;5580;50.106;8.702;2023-06-22T02:20:54;13.87;;;10.57;;
11054;SDS011;5580;50.106;8.702;2023-06-22T02:23:19;14.90;;;10.93;;
11054;SDS011;5580;50.106;8.702;2023-06-22T02:25:45;14.00;;;10.10;;
11054;SDS011;5580;50.106;8.702;2023-06-22T02:28:10;15.17;;;10.53;;
11054;SDS011;5580;50.106;8.702;2023-06-22T02:30:36;15.10;;;10.47;;
11054;SDS011;5580;50.106;8.702;2023-06-22T02:33:01;14.63;;;10.83;;
11054;SDS011;5580;50.106;8.702;2023-06-22T02:35:27;14.63;;;10.80;;
11054;SDS011;5580;50.106;8.702;2023-06-22T02:37:59;15.93;;;10.77;;
11054;SDS011;5580;50.106;8.702;2023-06-22T02:40:26;15.37;;;11.10;;
11054;SDS011;5580;50.106;8.702;2023-06-22T02:42:54;15.10;;;11.03;;
11054;SDS011;5580;50.106;8.702;2023-06-22T02:45:19;16.87;;;11.60;;
11054;SDS011;5580;50.106;8.702;2023-06-22T02:47:45;16.30;;;10.83;;
11054;SDS011;5580;50.106;8.702;2023-06-22T02:50:12;14.33;;;10.67;;
11054;SDS011;5580;50.106;8.702;2023-06-22T02:52:38;13.47;;;10.30;;
11054;SDS011;5580;50.106;8.702;2023-06-22T02:55:05;16.30;;;10.50;;
11054;SDS011;5580;50.106;8.702;2023-06-22T02:57:32;13.83;;;10.80;;
11054;SDS011;5580;50.106;8.702;2023-06-22T02:59:58;14.17;;;9.80;;
11054;SDS011;5580;50.106;8.702;2023-06-22T03:02:24;13.57;;;10.27;;
11054;SDS011;5580;50.106;8.702;2023-06-22T03:04:51;15.07;;;10.27;;
11054;SDS011;5580;50.106;8.702;2023-06-22T03:07:19;16.20;;;10.97;;
11054;SDS011;5580;50.106;8.702;2023-06-22T03:09:45;16.40;;;11.07;;
11054;SDS011;5580;50.106;8.702;2023-06-22T03:12:10;14.70;;;11.00;;
11054;SDS011;5580;50.106;8.702;2023-06-22T03:14:36;16.10;;;10.77;;
11054;SDS011;5580;50.106;8.702;2023-06-22T03:17:04;15.73;;;10.83;;
11054;SDS011;5580;50.106;8.702;2023-06-22T03:19:30;12.70;;;9.87;;
11054;SDS011;5580;50.106;8.702;2023-06-22T03:21:57;14.10;;;10.47;;
11054;SDS011;5580;50.106;8.702;2023-06-22T03:24:24;14.20;;;10.20;;
11054;SDS011;5580;50.106;8.702;2023-06-22T03:26:50;14.63;;;10.87;;
11054;SDS011;5580;50.106;8.702;2023-06-22T03:29:15;14.27;;;10.87;;
11054;SDS011;5580;50.106;8.702;2023-06-22T03:31:41;16.93;;;11.33;;
11054;SDS011;5580;50.106;8.702;2023-06-22T03:34:07;14.57;;;11.33;;
11054;SDS011;5580;50.106;8.702;2023-06-22T03:36:32;15.33;;;11.27;;
11054;SDS011;5580;50.106;8.702;2023-06-22T03:38:58;15.63;;;11.93;;
11054;SDS011;5580;50.106;8.702;2023-06-22T03:41:23;16.03;;;11.60;;
11054;SDS011;5580;50.106;8.702;2023-06-22T03:43:50;17.60;;;11.57;;
11054;SDS011;5580;50.106;8.702;2023-06-22T03:46:16;17.67;;;11.57;;
11054;SDS011;5580;50.106;8.702;2023-06-22T03:48:41;25.80;;;12.43;;
11054;SDS011;5580;50.106;8.702;2023-06-22T03:51:07;24.87;;;13.10;;
11054;SDS011;5580;50.106;8.702;2023-06-22T03:53:32;18.90;;;12.40;;
11054;SDS011;5580;50.106;8.702;2023-06-22T03:55:58;17.13;;;12.03;;
11054;SDS011;5580;50.106;8.702;2023-06-22T03:58:23;15.87;;;11.80;;
11054;SDS011;5580;50.106;8.702;2023-06-22T04:00:49;15.60;;;11.23;;
11054;SDS011;5580;50.106;8.702;2023-06-22T04:03:16;16.50;;;11.60;;
11054;SDS011;5580;50.106;8.702;2023-06-22T04:05:44;15.93;;;11.77;;
11054;SDS011;5580;50.106;8.702;2023-06-22T04:08:10;18.77;;;13.57;;
11054;SDS011;5580;50.106;8.702;2023-06-22T04:10:36;18.60;;;12.87;;
11054;SDS011;5580;50.106;8.702;2023-06-22T04:13:02;16.40;;;13.40;;
11054;SDS011;5580;50.106;8.702;2023-06-22T04:15:28;16.27;;;13.60;;
11054;SDS011;5580;50.106;8.702;2023-06-22T04:17:54;18.33;;;13.37;;
11054;SDS011;5580;50.106;8.702;2023-06-22T04:20:20;19.60;;;13.80;;
11054;SDS011;5580;50.106;8.702;2023-06-22T04:22:45;18.70;;;12.57;;
11054;SDS011;5580;50.106;8.702;2023-06-22T04:25:11;17.93;;;12.90;;
11054;SDS011;5580;50.106;8.702;2023-06-22T04:27:37;16.40;;;12.67;;
11054;SDS011;5580;50.106;8.702;2023-06-22T04:30:05;20.20;;;13.37;;
11054;SDS011;5580;50.106;8.702;2023-06-22T04:32:33;18.93;;;12.90;;
11054;SDS011;5580;50.106;8.702;2023-06-22T04:35:02;18.73;;;12.90;;
11054;SDS011;5580;50.106;8.702;2023-06-22T04:37:29;19.03;;;13.57;;
11054;SDS011;5580;50.106;8.702;2023-06-22T04:39:55;16.30;;;12.87;;
11054;SDS011;5580;50.106;8.702;2023-06-22T04:42:21;17.53;;;13.03;;
11054;SDS011;5580;50.106;8.702;2023-06-22T04:44:47;20.80;;;12.60;;
11054;SDS011;5580;50.106;8.702;2023-06-22T04:47:12;17.30;;;12.87;;
11054;SDS011;5580;50.106;8.702;2023-06-22T04:49:38;17.87;;;12.77;;
11054;SDS011;5580;50.106;8.702;2023-06-22T04:52:08;17.93;;;13.33;;
11054;SDS011;5580;50.106;8.702;2023-06-22T04:54:35;17.53;;;13.17;;
11054;SDS011;5580;50.106;8.702;2023-06-22T04:57:02;17.10;;;12.67;;
11054;SDS011;5580;50.106;8.702;2023-06-22T04:59:30;19.30;;;12.03;;
11054;SDS011;5580;50.106;8.702;2023-06-22T05:01:56;16.50;;;12.50;;
11054;SDS011;5580;50.106;8.702;2023-06-22T05:04:23;17.43;;;12.23;;
11054;SDS011;5580;50.106;8.702;2023-06-22T05:06:50;17.20;;;13.47;;
11054;SDS011;5580;50.106;8.702;2023-06-22T05:09:16;17.20;;;13.07;;
11054;SDS011;5580;50.106;8.702;2023-06-22T05:11:42;18.47;;;13.77;;
11054;SDS011;5580;50.106;8.702;2023-06-22T05:14:08;19.77;;;13.53;;
11054;SDS011;5580;50.106;8.702;2023-06-22T05:16:34;18.87;;;13.27;;
11054;SDS011;5580;50.106;8.702;2023-06-22T05:19:01;16.67;;;12.70;;
11054;SDS011;5580;50.106;8.702;2023-06-22T05:21:28;17.23;;;12.83;;
11054;SDS011;5580;50.106;8.702;2023-06-22T05:23:54;15.63;;;12.13;;
11054;SDS011;5580;50.106;8.702;2023-06-22T05:26:21;14.70;;;11.83;;
11054;SDS011;5580;50.106;8.702;2023-06-22T05:28:47;19.73;;;12.07;;
11054;SDS011;5580;50.106;8.702;2023-06-22T05:31:14;16.10;;;12.43;;
11054;SDS011;5580;50.106;8.702;2023-06-22T05:33:40;17.03;;;11.90;;
11054;SDS011;5580;50.106;8.702;2023-06-22T05:36:07;17.97;;;11.97;;
11054;SDS011;5580;50.106;8.702;2023-06-22T05:38:34;17.83;;;11.73;;
11054;SDS011;5580;50.106;8.702;2023-06-22T05:40:59;15.43;;;12.07;;
11054;SDS011;5580;50.106;8.702;2023-06-22T05:43:25;17.23;;;12.23;;
11054;SDS011;5580;50.106;8.702;2023-06-22T05:45:51;18.87;;;12.60;;
11054;SDS011;5580;50.106;8.702;2023-06-22T05:48:16;18.87;;;11.90;;
11054;SDS011;5580;50.106;8.702;2023-06-22T05:50:42;19.47;;;12.40;;
11054;SDS011;5580;50.106;8.702;2023-06-22T05:53:08;19.63;;;13.03;;
11054;SDS011;5580;50.106;8.702;2023-06-22T05:55:33;18.60;;;12.80;;
11054;SDS011;5580;50.106;8.702;2023-06-22T05:57:59;17.70;;;12.47;;
11054;SDS011;5580;50.106;8.702;2023-06-22T06:00:25;19.87;;;12.90;;
11054;SDS011;5580;50.106;8.702;2023-06-22T06:02:50;17.07;;;12.13;;
11054;SDS011;5580;50.106;8.702;2023-06-22T06:05:16;17.43;;;11.93;;
11054;SDS011;5580;50.106;8.702;2023-06-22T06:07:42;17.93;;;11.33;;
11054;SDS011;5580;50.106;8.702;2023-06-22T06:10:08;18.17;;;12.60;;
11054;SDS011;5580;50.106;8.702;2023-06-22T06:12:34;15.77;;;12.67;;
11054;SDS011;5580;50.106;8.702;2023-06-22T06:15:00;20.17;;;11.90;;
11054;SDS011;5580;50.106;8.702;2023-06-22T06:17:26;17.07;;;12.20;;
11054;SDS011;5580;50.106;8.702;2023-06-22T06:19:52;15.27;;;11.77;;
11054;SDS011;5580;50.106;8.702;2023-06-22T06:22:17;17.47;;;12.00;;
11054;SDS011;5580;50.106;8.702;2023-06-22T06:24:44;16.00;;;12.10;;
11054;SDS011;5580;50.106;8.702;2023-06-22T06:27:10;18.10;;;12.50;;
11054;SDS011;5580;50.106;8.702;2023-06-22T06:29:36;18.10;;;11.57;;
11054;SDS011;5580;50.106;8.702;2023-06-22T06:32:01;15.97;;;11.10;;
11054;SDS011;5580;50.106;8.702;2023-06-22T06:34:27;16.00;;;12.30;;
11054;SDS011;5580;50.106;8.702;2023-06-22T06:36:52;18.40;;;11.63;;
11054;SDS011;5580;50.106;8.702;2023-06-22T06:39:18;15.37;;;12.17;;
11054;SDS011;5580;50.106;8.702;2023-06-22T06:41:43;15.80;;;12.10;;
11054;SDS011;5580;50.106;8.702;2023-06-22T06:44:09;16.77;;;12.17;;
11054;SDS011;5580;50.106;8.702;2023-06-22T06:46:34;15.43;;;12.07;;
11054;SDS011;5580;50.106;8.702;2023-06-22T06:49:00;16.57;;;12.40;;
11054;SDS011;5580;50.106;8.702;2023-06-22T06:51:26;17.07;;;12.80;;
11054;SDS011;5580;50.106;8.702;2023-06-22T06:53:51;17.73;;;12.70;;
11054;SDS011;5580;50.106;8.702;2023-06-22T06:56:17;17.27;;;12.23;;
11054;SDS011;5580;50.106;8.702;2023-06-22T06:58:42;16.10;;;11.70;;
11054;SDS011;5580;50.106;8.702;2023-06-22T07:01:10;15.60;;;11.77;;
11054;SDS011;5580;50.106;8.702;2023-06-22T07:03:36;16.90;;;12.20;;
11054;SDS011;5580;50.106;8.702;2023-06-22T07:06:02;16.67;;;11.77;;
11054;SDS011;5580;50.106;8.702;2023-06-22T07:08:28;17.10;;;12.83;;
11054;SDS011;5580;50.106;8.702;2023-06-22T07:10:53;16.90;;;11.40;;
11054;SDS011;5580;50.106;8.702;2023-06-22T07:13:19;16.87;;;12.07;;
11054;SDS011;5580;50.106;8.702;2023-06-22T07:15:44;15.93;;;11.67;;
11054;SDS011;5580;50.106;8.702;2023-06-22T07:18:10;15.43;;;11.23;;
11054;SDS011;5580;50.106;8.702;2023-06-22T07:20:36;15.57;;;11.57;;
11054;SDS011;5580;50.106;8.702;2023-06-22T07:23:01;17.33;;;12.03;;
11054;SDS011;5580;50.106;8.702;2023-06-22T07:25:28;17.45;;;11.48;;
11054;SDS011;5580;50.106;8.702;2023-06-22T07:30:29;18.10;;;12.77;;
11054;SDS011;5580;50.106;8.702;2023-06-22T07:32:56;16.23;;;11.90;;
11054;SDS011;5580;50.106;8.702;2023-06-22T07:35:23;19.03;;;13.87;;
11054;SDS011;5580;50.106;8.702;2023-06-22T07:37:49;18.33;;;13.03;;
11054;SDS011;5580;50.106;8.702;2023-06-22T07:40:14;18.13;;;11.80;;
11054;SDS011;5580;50.106;8.702;2023-06-22T07:42:40;15.48;;;12.00;;
11054;SDS011;5580;50.106;8.702;2023-06-22T07:45:06;18.73;;;13.00;;
11054;SDS011;5580;50.106;8.702;2023-06-22T07:47:33;21.13;;;13.15;;
11054;SDS011;5580;50.106;8.702;2023-06-22T07:50:00;16.00;;;12.15;;
11054;SDS011;5580;50.106;8.702;2023-06-22T07:52:27;19.38;;;12.93;;
11054;SDS011;5580;50.106;8.702;2023-06-22T07:54:53;16.47;;;12.13;;
11054;SDS011;5580;50.106;8.702;2023-06-22T07:57:19;15.93;;;12.18;;
11054;SDS011;5580;50.106;8.702;2023-06-22T07:59:45;15.88;;;12.68;;
11054;SDS011;5580;50.106;8.702;2023-06-22T08:02:11;18.23;;;13.85;;
11054;SDS011;5580;50.106;8.702;2023-06-22T08:04:36;20.48;;;12.27;;
11054;SDS011;5580;50.106;8.702;2023-06-22T08:07:02;19.27;;;13.60;;
11054;SDS011;5580;50.106;8.702;2023-06-22T08:09:29;20.77;;;12.07;;
11054;SDS011;5580;50.106;8.702;2023-06-22T08:11:56;19.75;;;12.55;;
11054;SDS011;5580;50.106;8.702;2023-06-22T08:14:23;16.65;;;12.60;;
11054;SDS011;5580;50.106;8.702;2023-06-22T08:16:50;18.55;;;12.20;;
11054;SDS011;5580;50.106;8.702;2023-06-22T08:19:16;16.95;;;13.80;;
11054;SDS011;5580;50.106;8.702;2023-06-22T08:21:42;16.98;;;12.75;;
11054;SDS011;5580;50.106;8.702;2023-06-22T08:24:08;19.40;;;13.55;;
11054;SDS011;5580;50.106;8.702;2023-06-22T08:26:33;20.00;;;13.05;;
11054;SDS011;5580;50.106;8.702;2023-06-22T08:29:02;17.13;;;13.10;;
11054;SDS011;5580;50.106;8.702;2023-06-22T08:31:28;18.52;;;13.57;;
11054;SDS011;5580;50.106;8.702;2023-06-22T08:33:54;15.60;;;11.73;;
11054;SDS011;5580;50.106;8.702;2023-06-22T08:36:19;18.00;;;11.85;;
11054;SDS011;5580;50.106;8.702;2023-06-22T08:38:45;16.55;;;13.07;;
11054;SDS011;5580;50.106;8.702;2023-06-22T08:41:15;17.48;;;11.70;;
11054;SDS011;5580;50.106;8.702;2023-06-22T08:43:41;16.77;;;13.75;;
11054;SDS011;5580;50.106;8.702;2023-06-22T08:46:08;15.18;;;12.55;;
11054;SDS011;5580;50.106;8.702;2023-06-22T08:48:33;19.98;;;13.63;;
11054;SDS011;5580;50.106;8.702;2023-06-22T08:50:59;17.42;;;13.82;;
11054;SDS011;5580;50.106;8.702;2023-06-22T08:53:24;19.45;;;13.48;;
11054;SDS011;5580;50.106;8.702;2023-06-22T08:55:50;17.67;;;13.40;;
11054;SDS011;5580;50.106;8.702;2023-06-22T08:58:16;19.77;;;13.40;;
11054;SDS011;5580;50.106;8.702;2023-06-22T09:00:41;17.35;;;13.88;;
11054;SDS011;5580;50.106;8.702;2023-06-22T09:03:07;20.73;;;14.45;;
11054;SDS011;5580;50.106;8.702;2023-06-22T09:05:33;19.75;;;13.60;;
11054;SDS011;5580;50.106;8.702;2023-06-22T09:07:58;21.67;;;13.27;;
11054;SDS011;5580;50.106;8.702;2023-06-22T09:10:24;17.17;;;14.02;;
11054;SDS011;5580;50.106;8.702;2023-06-22T09:12:50;16.88;;;13.93;;
11054;SDS011;5580;50.106;8.702;2023-06-22T09:15:16;15.98;;;13.60;;
11054;SDS011;5580;50.106;8.702;2023-06-22T09:17:41;17.90;;;13.50;;
11054;SDS011;5580;50.106;8.702;2023-06-22T09:20:08;17.35;;;13.60;;
11054;SDS011;5580;50.106;8.702;2023-06-22T09:22:36;16.70;;;13.37;;
11054;SDS011;5580;50.106;8.702;2023-06-22T09:25:01;21.45;;;13.88;;
11054;SDS011;5580;50.106;8.702;2023-06-22T09:27:28;20.02;;;13.07;;
11054;SDS011;5580;50.106;8.702;2023-06-22T09:29:54;16.10;;;13.10;;
11054;SDS011;5580;50.106;8.702;2023-06-22T09:32:19;16.02;;;12.95;;
11054;SDS011;5580;50.106;8.702;2023-06-22T09:34:45;15.60;;;12.40;;
11054;SDS011;5580;50.106;8.702;2023-06-22T09:37:11;16.75;;;13.10;;
11054;SDS011;5580;50.106;8.702;2023-06-22T09:39:36;18.35;;;12.15;;
11054;SDS011;5580;50.106;8.702;2023-06-22T09:42:02;18.37;;;13.57;;
11054;SDS011;5580;50.106;8.702;2023-06-22T09:44:28;19.88;;;12.98;;
11054;SDS011;5580;50.106;8.702;2023-06-22T09:46:53;15.88;;;12.38;;
11054;SDS011;5580;50.106;8.702;2023-06-22T09:49:19;16.17;;;12.13;;
11054;SDS011;5580;50.106;8.702;2023-06-22T09:51:44;15.18;;;11.98;;
11054;SDS011;5580;50.106;8.702;2023-06-22T09:54:10;15.60;;;11.68;;
11054;SDS011;5580;50.106;8.702;2023-06-22T09:56:36;19.98;;;12.55;;
11054;SDS011;5580;50.106;8.702;2023-06-22T09:59:02;16.00;;;11.02;;
11054;SDS011;5580;50.106;8.702;2023-06-22T10:01:28;15.60;;;10.57;;
11054;SDS011;5580;50.106;8.702;2023-06-22T10:03:53;13.90;;;10.18;;
11054;SDS011;5580;50.106;8.702;2023-06-22T10:06:21;13.75;;;10.48;;
11054;SDS011;5580;50.106;8.702;2023-06-22T10:08:46;14.15;;;10.73;;
11054;SDS011;5580;50.106;8.702;2023-06-22T10:11:13;15.40;;;10.75;;
11054;SDS011;5580;50.106;8.702;2023-06-22T10:13:39;20.25;;;11.00;;
11054;SDS011;5580;50.106;8.702;2023-06-22T10:16:05;13.35;;;10.25;;
11054;SDS011;5580;50.106;8.702;2023-06-22T10:18:30;15.18;;;11.00;;
11054;SDS011;5580;50.106;8.702;2023-06-22T10:20:56;14.48;;;10.93;;
11054;SDS011;5580;50.106;8.702;2023-06-22T10:23:21;14.10;;;10.52;;
11054;SDS011;5580;50.106;8.702;2023-06-22T10:25:47;13.82;;;10.27;;
11054;SDS011;5580;50.106;8.702;2023-06-22T10:28:13;14.40;;;10.75;;
11054;SDS011;5580;50.106;8.702;2023-06-22T10:30:39;14.23;;;10.07;;
11054;SDS011;5580;50.106;8.702;2023-06-22T10:33:09;16.27;;;10.32;;
11054;SDS011;5580;50.106;8.702;2023-06-22T10:35:36;15.30;;;9.82;;
11054;SDS011;5580;50.106;8.702;2023-06-22T10:38:04;14.52;;;10.52;;
11054;SDS011;5580;50.106;8.702;2023-06-22T10:40:30;14.85;;;10.77;;
11054;SDS011;5580;50.106;8.702;2023-06-22T10:42:56;13.82;;;9.90;;
11054;SDS011;5580;50.106;8.702;2023-06-22T10:45:22;13.68;;;9.65;;
11054;SDS011;5580;50.106;8.702;2023-06-22T10:47:47;14.63;;;10.02;;
11054;SDS011;5580;50.106;8.702;2023-06-22T10:50:13;13.60;;;9.80;;
11054;SDS011;5580;50.106;8.702;2023-06-22T10:52:39;14.35;;;9.73;;
11054;SDS011;5580;50.106;8.702;2023-06-22T10:55:06;16.73;;;10.38;;
11054;SDS011;5580;50.106;8.702;2023-06-22T10:57:33;15.40;;;10.68;;
11054;SDS011;5580;50.106;8.702;2023-06-22T10:59:59;14.30;;;9.80;;
11054;SDS011;5580;50.106;8.702;2023-06-22T11:02:24;15.30;;;10.70;;
11054;SDS011;5580;50.106;8.702;2023-06-22T11:04:53;15.02;;;10.57;;
11054;SDS011;5580;50.106;8.702;2023-06-22T11:07:18;15.73;;;10.65;;
11054;SDS011;5580;50.106;8.702;2023-06-22T11:09:44;16.27;;;10.30;;
11054;SDS011;5580;50.106;8.702;2023-06-22T11:12:09;13.93;;;10.60;;
11054;SDS011;5580;50.106;8.702;2023-06-22T11:14:35;14.20;;;10.13;;
11054;SDS011;5580;50.106;8.702;2023-06-22T11:17:01;16.80;;;11.05;;
11054;SDS011;5580;50.106;8.702;2023-06-22T11:19:26;14.80;;;10.80;;
11054;SDS011;5580;50.106;8.702;2023-06-22T11:21:52;17.83;;;11.25;;
11054;SDS011;5580;50.106;8.702;2023-06-22T11:24:17;15.27;;;10.98;;
11054;SDS011;5580;50.106;8.702;2023-06-22T11:26:43;15.23;;;10.90;;
11054;SDS011;5580;50.106;8.702;2023-06-22T11:29:09;17.23;;;11.05;;
11054;SDS011;5580;50.106;8.702;2023-06-22T11:31:34;17.00;;;10.85;;
11054;SDS011;5580;50.106;8.702;2023-06-22T11:34:00;14.13;;;10.43;;
11054;SDS011;5580;50.106;8.702;2023-06-22T11:36:27;18.42;;;11.13;;
11054;SDS011;5580;50.106;8.702;2023-06-22T11:38:54;13.88;;;10.38;;
11054;SDS011;5580;50.106;8.702;2023-06-22T11:41:19;13.93;;;10.13;;
11054;SDS011;5580;50.106;8.702;2023-06-22T11:43:45;15.50;;;11.23;;
11054;SDS011;5580;50.106;8.702;2023-06-22T11:46:10;16.25;;;10.93;;
11054;SDS011;5580;50.106;8.702;2023-06-22T11:48:36;16.23;;;10.95;;
11054;SDS011;5580;50.106;8.702;2023-06-22T11:51:02;16.58;;;11.00;;
11054;SDS011;5580;50.106;8.702;2023-06-22T11:53:28;16.52;;;10.57;;
11054;SDS011;5580;50.106;8.702;2023-06-22T11:55:54;14.60;;;10.77;;
11054;SDS011;5580;50.106;8.702;2023-06-22T11:58:21;15.93;;;10.70;;
11054;SDS011;5580;50.106;8.702;2023-06-22T12:00:47;17.00;;;10.73;;
11054;SDS011;5580;50.106;8.702;2023-06-22T12:03:13;19.95;;;10.68;;
11054;SDS011;5580;50.106;8.702;2023-06-22T12:05:39;18.20;;;10.95;;
11054;SDS011;5580;50.106;8.702;2023-06-22T12:08:05;15.68;;;11.43;;
11054;SDS011;5580;50.106;8.702;2023-06-22T12:10:31;19.30;;;10.82;;
11054;SDS011;5580;50.106;8.702;2023-06-22T12:12:57;15.50;;;10.60;;
11054;SDS011;5580;50.106;8.702;2023-06-22T12:15:24;17.02;;;11.13;;
11054;SDS011;5580;50.106;8.702;2023-06-22T12:17:50;14.63;;;10.40;;
11054;SDS011;5580;50.106;8.702;2023-06-22T12:20:16;19.70;;;11.38;;
11054;SDS011;5580;50.106;8.702;2023-06-22T12:22:42;19.05;;;11.00;;
11054;SDS011;5580;50.106;8.702;2023-06-22T12:25:08;16.98;;;11.30;;
11054;SDS011;5580;50.106;8.702;2023-06-22T12:27:34;16.08;;;11.38;;
11054;SDS011;5580;50.106;8.702;2023-06-22T12:30:00;16.55;;;10.05;;
11054;SDS011;5580;50.106;8.702;2023-06-22T12:32:26;17.75;;;10.63;;
11054;SDS011;5580;50.106;8.702;2023-06-22T12:34:52;16.45;;;11.60;;
11054;SDS011;5580;50.106;8.702;2023-06-22T12:37:17;15.25;;;10.73;;
11054;SDS011;5580;50.106;8.702;2023-06-22T12:39:43;16.48;;;11.05;;
11054;SDS011;5580;50.106;8.702;2023-06-22T12:42:11;18.58;;;11.05;;
11054;SDS011;5580;50.106;8.702;2023-06-22T12:44:38;16.25;;;10.73;;
11054;SDS011;5580;50.106;8.702;2023-06-22T12:47:07;16.45;;;10.70;;
11054;SDS011;5580;50.106;8.702;2023-06-22T12:49:36;18.38;;;10.68;;
11054;SDS011;5580;50.106;8.702;2023-06-22T12:52:02;16.15;;;10.70;;
11054;SDS011;5580;50.106;8.702;2023-06-22T12:54:28;16.30;;;11.00;;
11054;SDS011;5580;50.106;8.702;2023-06-22T12:56:54;16.73;;;11.10;;
11054;SDS011;5580;50.106;8.702;2023-06-22T12:59:20;16.95;;;10.55;;
11054;SDS011;5580;50.106;8.702;2023-06-22T13:01:46;16.63;;;10.32;;
11054;SDS011;5580;50.106;8.702;2023-06-22T13:04:12;15.60;;;10.80;;
11054;SDS011;5580;50.106;8.702;2023-06-22T13:06:56;14.70;;;10.45;;
11054;SDS011;5580;50.106;8.702;2023-06-22T13:09:39;16.92;;;10.25;;
11054;SDS011;5580;50.106;8.702;2023-06-22T13:12:05;17.85;;;10.93;;
11054;SDS011;5580;50.106;8.702;2023-06-22T13:14:31;17.42;;;10.57;;
11054;SDS011;5580;50.106;8.702;2023-06-22T13:16:56;16.25;;;10.02;;
11054;SDS011;5580;50.106;8.702;2023-06-22T13:19:22;18.20;;;11.20;;
11054;SDS011;5580;50.106;8.702;2023-06-22T13:21:48;17.20;;;11.15;;
11054;SDS011;5580;50.106;8.702;2023-06-22T13:24:13;16.40;;;10.68;;
11054;SDS011;5580;50.106;8.702;2023-06-22T13:26:42;15.48;;;10.70;;
11054;SDS011;5580;50.106;8.702;2023-06-22T13:29:07;16.85;;;11.32;;
11054;SDS011;5580;50.106;8.702;2023-06-22T13:31:33;17.55;;;10.68;;
11054;SDS011;5580;50.106;8.702;2023-06-22T13:33:58;17.05;;;10.13;;
11054;SDS011;5580;50.106;8.702;2023-06-22T13:36:24;21.73;;;11.48;;
11054;SDS011;5580;50.106;8.702;2023-06-22T13:38:50;19.58;;;10.88;;
11054;SDS011;5580;50.106;8.702;2023-06-22T13:41:15;15.90;;;10.60;;
11054;SDS011;5580;50.106;8.702;2023-06-22T13:43:41;19.02;;;10.48;;
11054;SDS011;5580;50.106;8.702;2023-06-22T13:46:06;17.50;;;11.35;;
11054;SDS011;5580;50.106;8.702;2023-06-22T13:48:32;14.93;;;10.93;;
11054;SDS011;5580;50.106;8.702;2023-06-22T13:50:58;17.42;;;10.75;;
11054;SDS011;5580;50.106;8.702;2023-06-22T13:53:24;16.52;;;10.80;;
11054;SDS011;5580;50.106;8.702;2023-06-22T13:55:50;18.27;;;11.10;;
11054;SDS011;5580;50.106;8.702;2023-06-22T13:58:16;17.42;;;10.77;;
11054;SDS011;5580;50.106;8.702;2023-06-22T14:00:51;15.48;;;10.52;;
11054;SDS011;5580;50.106;8.702;2023-06-22T14:03:18;18.58;;;11.70;;
11054;SDS011;5580;50.106;8.702;2023-06-22T14:06:07;15.45;;;10.20;;
11054;SDS011;5580;50.106;8.702;2023-06-22T14:08:34;15.25;;;10.73;;
11054;SDS011;5580;50.106;8.702;2023-06-22T14:11:03;19.67;;;10.93;;
11054;SDS011;5580;50.106;8.702;2023-06-22T14:13:32;14.57;;;10.10;;
11054;SDS011;5580;50.106;8.702;2023-06-22T14:15:57;16.45;;;10.73;;
11054;SDS011;5580;50.106;8.702;2023-06-22T14:18:23;16.60;;;10.20;;
11054;SDS011;5580;50.106;8.702;2023-06-22T14:20:51;20.35;;;10.73;;
11054;SDS011;5580;50.106;8.702;2023-06-22T14:23:17;20.67;;;10.82;;
11054;SDS011;5580;50.106;8.702;2023-06-22T14:25:45;17.27;;;10.60;;
11054;SDS011;5580;50.106;8.702;2023-06-22T14:28:11;19.80;;;10.80;;
11054;SDS011;5580;50.106;8.702;2023-06-22T14:30:56;18.90;;;10.82;;
11054;SDS011;5580;50.106;8.702;2023-06-22T14:33:27;19.55;;;10.88;;
11054;SDS011;5580;50.106;8.702;2023-06-22T14:35:53;18.13;;;9.68;;
11054;SDS011;5580;50.106;8.702;2023-06-22T14:38:18;21.98;;;9.90;;
11054;SDS011;5580;50.106;8.702;2023-06-22T14:40:44;17.73;;;9.15;;